Time;durP1;ratioP1;P1;durP2;ratioP2;P2;SDS_P1;SDS_P2;PMS_P1;PMS_P2;Temp;Humidity;BMP_temperature;BMP_pressure;BME280_temperature;BME280_humidity;BME280_pressure;Samples;Min_cycle;Max_cycle;Signal;HPM_P1;HPM_P2
2022/09/23 00:01:13;;;;;;;10.38;5.70;;;;;;;2.52;100.00;95813.91;5044475;28;20045;-74
2022/09/23 00:03:41;;;;;;;11.82;6.18;;;;;;;2.51;100.00;95817.50;5040694;28;20045;-75
2022/09/23 00:06:10;;;;;;;9.55;5.57;;;;;;;2.51;100.00;95811.50;5035429;28;20449;-75
2022/09/23 00:08:36;;;;;;;16.83;5.28;;;;;;;2.36;100.00;95814.44;5038974;28;20052;-74
2022/09/23 00:11:07;;;;;;;12.57;5.78;;;;;;;2.32;100.00;95808.06;5046437;28;20486;-74
2022/09/23 00:13:35;;;;;;;14.80;5.40;;;;;;;2.32;100.00;95808.84;5035502;28;20085;-75
2022/09/23 00:16:13;;;;;;;9.73;5.18;;;;;;;2.47;100.00;95805.97;5043512;28;20099;-75
2022/09/23 00:18:38;;;;;;;12.02;5.80;;;;;;;2.39;100.00;95808.81;5042958;28;20038;-75
2022/09/23 00:21:05;;;;;;;9.80;5.35;;;;;;;2.22;100.00;95808.50;5032166;28;20057;-75
2022/09/23 00:23:31;;;;;;;12.57;5.43;;;;;;;2.42;100.00;95808.38;5040930;28;20043;-75
2022/09/23 00:25:59;;;;;;;13.18;5.80;;;;;;;2.42;100.00;95803.19;5048598;28;20124;-75
2022/09/23 00:28:24;;;;;;;16.95;7.65;;;;;;;2.44;100.00;95801.16;5044094;28;20042;-76
2022/09/23 00:30:50;;;;;;;16.27;6.40;;;;;;;2.27;100.00;95800.06;5035421;28;20423;-75
2022/09/23 00:33:15;;;;;;;13.43;5.78;;;;;;;2.21;100.00;95799.94;5041492;28;20506;-75
2022/09/23 00:35:41;;;;;;;12.35;5.75;;;;;;;2.19;100.00;95804.53;5048502;28;20095;-75
2022/09/23 00:38:06;;;;;;;13.32;5.82;;;;;;;2.19;100.00;95796.72;5035903;28;20091;-75
2022/09/23 00:40:32;;;;;;;11.07;4.95;;;;;;;2.17;100.00;95796.16;5032314;28;20463;-75
2022/09/23 00:42:57;;;;;;;11.13;5.22;;;;;;;2.11;100.00;95791.78;5030533;28;20051;-75
2022/09/23 00:45:23;;;;;;;11.77;4.80;;;;;;;2.19;100.00;95794.13;5044894;28;20041;-75
2022/09/23 00:47:53;;;;;;;9.73;5.38;;;;;;;2.11;100.00;95791.78;5042292;28;20572;-75
2022/09/23 00:50:24;;;;;;;12.48;4.85;;;;;;;2.11;100.00;95791.78;5036994;28;20095;-75
2022/09/23 00:52:52;;;;;;;12.82;5.03;;;;;;;1.88;100.00;95793.13;5044509;28;20127;-75
2022/09/23 00:55:25;;;;;;;10.60;4.43;;;;;;;1.90;100.00;95791.09;5046871;28;20040;-74
2022/09/23 00:57:54;;;;;;;9.48;4.90;;;;;;;1.87;100.00;95778.53;5035521;28;20045;-75
2022/09/23 01:00:21;;;;;;;12.20;4.97;;;;;;;1.76;100.00;95786.97;5039947;28;20125;-75
2022/09/23 01:02:46;;;;;;;8.32;4.90;;;;;;;1.89;100.00;95789.50;5045085;28;20080;-74
2022/09/23 01:05:13;;;;;;;9.43;4.70;;;;;;;1.85;100.00;95783.16;5046628;28;20040;-75
2022/09/23 01:07:39;;;;;;;12.23;5.20;;;;;;;1.89;100.00;95784.31;5049154;28;20071;-75
2022/09/23 01:10:06;;;;;;;9.45;4.68;;;;;;;1.81;100.00;95774.19;5042605;28;20069;-75
2022/09/23 01:12:38;;;;;;;8.38;4.35;;;;;;;1.73;100.00;95764.03;5049837;28;20048;-75
2022/09/23 01:15:09;;;;;;;8.20;4.60;;;;;;;1.83;100.00;95769.56;5053527;28;20407;-75
2022/09/23 01:17:43;;;;;;;10.40;5.22;;;;;;;1.85;100.00;95769.34;5041827;28;20048;-74
2022/09/23 01:20:45;;;;;;;9.55;4.72;;;;;;;1.73;100.00;95769.22;5041912;28;20130;-75
2022/09/23 01:23:20;;;;;;;9.98;4.65;;;;;;;1.61;100.00;95760.47;5033131;28;20045;-75
2022/09/23 01:25:48;;;;;;;;;;;;;;;1.51;100.00;95756.53;5049022;28;20167;-75
2022/09/23 01:28:20;;;;;;;8.38;4.00;;;;;;;1.56;100.00;95764.50;5036107;28;20398;-74
2022/09/23 01:31:15;;;;;;;8.80;4.30;;;;;;;1.53;100.00;95762.31;5047385;28;20053;-76
2022/09/23 01:34:00;;;;;;;6.05;4.00;;;;;;;1.49;100.00;95757.75;5039365;28;20071;-75
2022/09/23 01:36:42;;;;;;;9.45;4.55;;;;;;;1.40;100.00;95756.41;5048163;28;20123;-75
2022/09/23 01:39:32;;;;;;;8.40;4.38;;;;;;;1.46;100.00;95751.16;5039214;28;20037;-75
2022/09/23 01:42:11;;;;;;;11.65;4.57;;;;;;;1.36;100.00;95748.22;5039712;28;20044;-75
2022/09/23 01:44:47;;;;;;;8.25;4.30;;;;;;;1.33;100.00;95743.44;5049388;28;20041;-75
2022/09/23 01:47:21;;;;;;;10.73;4.25;;;;;;;1.32;100.00;95749.63;5048832;28;20033;-74
2022/09/23 01:49:56;;;;;;;10.75;4.95;;;;;;;1.24;100.00;95744.69;5042252;28;20050;-74
2022/09/23 01:52:34;;;;;;;7.72;4.30;;;;;;;1.28;100.00;95751.03;5047783;28;20041;-75
2022/09/23 01:55:07;;;;;;;8.68;4.20;;;;;;;1.31;100.00;95740.28;5049935;28;20045;-74
2022/09/23 01:58:05;;;;;;;8.65;4.70;;;;;;;1.39;100.00;95737.44;5046369;28;20046;-75
2022/09/23 02:00:36;;;;;;;8.23;3.88;;;;;;;1.23;100.00;95743.06;5044276;28;20076;-75
2022/09/23 02:03:25;;;;;;;6.97;4.07;;;;;;;1.17;100.00;95740.28;5034568;28;20438;-75
2022/09/23 02:06:03;;;;;;;10.20;4.43;;;;;;;1.16;100.00;95743.09;5036061;28;20056;-74
2022/09/23 02:08:44;;;;;;;7.90;3.92;;;;;;;1.19;100.00;95733.13;5039613;28;20041;-75
2022/09/23 02:11:14;;;;;;;8.60;4.18;;;;;;;1.15;100.00;95737.13;5038884;28;20045;-75
2022/09/23 02:14:14;;;;;;;7.75;4.20;;;;;;;1.20;100.00;95734.69;5041792;28;20095;-75
2022/09/23 02:16:50;;;;;;;6.90;4.18;;;;;;;1.16;100.00;95738.69;5045259;28;20132;-75
2022/09/23 02:19:39;;;;;;;8.32;4.43;;;;;;;1.16;100.00;95743.88;5040784;28;20041;-74
2022/09/23 02:22:08;;;;;;;7.30;4.05;;;;;;;1.05;100.00;95752.31;5042348;28;20041;-75
2022/09/23 02:24:37;;;;;;;7.10;3.97;;;;;;;1.11;100.00;95746.28;5048274;28;20036;-75
2022/09/23 02:27:18;;;;;;;6.72;4.03;;;;;;;1.16;100.00;95753.47;5045031;28;20407;-75
2022/09/23 02:30:00;;;;;;;6.57;3.90;;;;;;;1.09;100.00;95752.69;5041658;28;20048;-75
2022/09/23 02:32:40;;;;;;;7.53;4.30;;;;;;;1.10;100.00;95749.88;5035939;28;20041;-74
2022/09/23 02:35:24;;;;;;;7.65;3.88;;;;;;;1.01;100.00;95751.13;5047002;28;20045;-74
2022/09/23 02:38:17;;;;;;;6.50;3.77;;;;;;;1.00;100.00;95744.31;5046416;28;20041;-75
2022/09/23 02:40:57;;;;;;;9.50;3.90;;;;;;;1.00;100.00;95746.91;5032661;28;20282;-74
2022/09/23 02:43:28;;;;;;;6.00;3.80;;;;;;;1.07;100.00;95739.94;5033079;28;20041;-75
2022/09/23 02:45:54;;;;;;;7.78;4.07;;;;;;;1.09;100.00;95737.91;5041845;28;20420;-74
2022/09/23 02:48:30;;;;;;;9.73;4.13;;;;;;;1.02;100.00;95742.31;5048482;28;20052;-74
2022/09/23 02:50:59;;;;;;;6.93;3.90;;;;;;;0.96;100.00;95737.94;5029886;28;20042;-74
2022/09/23 02:53:25;;;;;;;7.05;3.50;;;;;;;0.94;100.00;95737.38;5038338;28;20051;-74
2022/09/23 02:55:50;;;;;;;8.38;3.78;;;;;;;0.81;100.00;95736.38;5045200;28;20124;-75
2022/09/23 02:58:16;;;;;;;8.45;4.03;;;;;;;0.75;100.00;95737.19;5048103;28;20044;-75
2022/09/23 03:01:09;;;;;;;7.00;4.03;;;;;;;0.82;100.00;95738.00;5040046;28;20041;-75
2022/09/23 03:03:42;;;;;;;6.25;3.58;;;;;;;0.79;100.00;95735.81;5040985;28;20049;-75
2022/09/23 03:06:13;;;;;;;7.40;3.83;;;;;;;0.67;100.00;95727.03;5040050;28;20040;-75
2022/09/23 03:08:52;;;;;;;7.13;3.90;;;;;;;0.74;100.00;95730.41;5047050;28;20594;-74
2022/09/23 03:11:20;;;;;;;9.25;3.92;;;;;;;0.70;100.00;95718.88;5035401;28;20035;-75
2022/09/23 03:13:54;;;;;;;8.85;3.80;;;;;;;0.62;100.00;95721.69;5037553;28;20050;-75
2022/09/23 03:16:38;;;;;;;7.28;3.83;;;;;;;0.59;100.00;95727.25;5038510;28;20103;-74
2022/09/23 03:19:18;;;;;;;6.85;3.63;;;;;;;0.51;100.00;95723.06;5048113;28;20063;-75
2022/09/23 03:22:04;;;;;;;6.18;3.47;;;;;;;0.62;100.00;95726.88;5041754;28;20045;-74
2022/09/23 03:24:33;;;;;;;10.20;3.30;;;;;;;0.67;100.00;95729.63;5049337;28;20450;-74
2022/09/23 03:27:07;;;;;;;6.65;3.67;;;;;;;0.64;100.00;95724.84;5044731;28;20048;-74
2022/09/23 03:29:36;;;;;;;7.88;4.22;;;;;;;0.51;100.00;95726.44;5048589;28;20500;-75
2022/09/23 03:32:06;;;;;;;6.18;3.65;;;;;;;0.50;100.00;95714.53;5046400;28;20037;-74
2022/09/23 03:34:35;;;;;;;8.77;3.88;;;;;;;0.63;100.00;95723.25;5049104;28;20550;-74
2022/09/23 03:37:14;;;;;;;7.05;3.75;;;;;;;0.60;100.00;95718.47;5045479;28;20048;-74
2022/09/23 03:40:14;;;;;;;7.22;3.53;;;;;;;0.56;100.00;95717.28;5045137;28;20037;-75
2022/09/23 03:42:40;;;;;;;7.97;3.78;;;;;;;0.55;100.00;95726.03;5025217;28;20073;-74
2022/09/23 03:45:11;;;;;;;5.50;3.35;;;;;;;0.56;100.00;95719.88;5043751;28;20601;-75
2022/09/23 03:47:38;;;;;;;6.90;3.67;;;;;;;0.58;100.00;95725.66;5042026;28;20091;-74
2022/09/23 03:50:04;;;;;;;5.45;3.50;;;;;;;0.58;100.00;95725.66;5046514;28;20045;-75
2022/09/23 03:52:30;;;;;;;8.85;3.55;;;;;;;0.58;100.00;95715.31;5037223;28;20037;-75
2022/09/23 03:54:56;;;;;;;7.13;3.47;;;;;;;0.51;100.00;95710.91;5043318;28;20071;-75
2022/09/23 03:57:21;;;;;;;6.78;3.60;;;;;;;0.55;100.00;95715.69;5045693;28;20174;-75
2022/09/23 03:59:51;;;;;;;6.20;3.70;;;;;;;0.40;100.00;95714.09;5047635;28;20151;-74
2022/09/23 04:02:18;;;;;;;5.75;3.35;;;;;;;0.44;100.00;95712.72;5035161;28;20086;-75
2022/09/23 04:04:44;;;;;;;7.00;3.28;;;;;;;0.45;100.00;95706.53;5034155;28;20048;-75
2022/09/23 04:07:10;;;;;;;7.35;3.53;;;;;;;0.47;100.00;95714.91;5033882;28;20041;-75
2022/09/23 04:09:36;;;;;;;9.27;3.60;;;;;;;0.43;100.00;95707.72;5037774;28;20064;-74
2022/09/23 04:12:03;;;;;;;5.20;3.25;;;;;;;0.48;100.00;95706.13;5045781;28;20487;-75
2022/09/23 04:14:29;;;;;;;4.78;3.35;;;;;;;0.43;100.00;95713.72;5037206;28;20065;-74
2022/09/23 04:16:55;;;;;;;5.00;3.20;;;;;;;0.41;100.00;95700.16;5045772;28;20040;-75
2022/09/23 04:19:20;;;;;;;6.07;3.28;;;;;;;0.41;100.00;95702.75;5043992;28;20139;-74
2022/09/23 04:21:47;;;;;;;6.40;3.58;;;;;;;0.32;100.00;95703.97;5041331;28;20415;-74
2022/09/23 04:24:13;;;;;;;7.40;3.65;;;;;;;0.33;100.00;95700.38;5044044;28;20037;-74
2022/09/23 04:26:39;;;;;;;6.10;3.17;;;;;;;0.37;100.00;95709.31;5037416;28;20041;-74
2022/09/23 04:29:05;;;;;;;6.20;3.25;;;;;;;0.34;100.00;95704.56;5030189;28;20123;-74
2022/09/23 04:31:32;;;;;;;9.57;3.45;;;;;;;0.37;100.00;95701.56;5045635;28;20049;-74
2022/09/23 04:33:58;;;;;;;6.13;3.25;;;;;;;0.39;100.00;95696.19;5050690;28;20487;-74
2022/09/23 04:36:24;;;;;;;5.78;3.20;;;;;;;0.42;100.00;95696.59;5048774;28;20044;-74
2022/09/23 04:38:50;;;;;;;6.35;3.20;;;;;;;0.34;100.00;95694.19;5051174;28;20095;-74
2022/09/23 04:41:17;;;;;;;6.75;3.33;;;;;;;0.39;100.00;95702.19;5038769;28;20037;-74
2022/09/23 04:43:43;;;;;;;6.03;3.50;;;;;;;0.45;100.00;95696.19;5038554;28;20122;-75
2022/09/23 04:46:11;;;;;;;7.20;3.40;;;;;;;0.44;100.00;95704.94;5051057;28;20064;-74
2022/09/23 04:48:38;;;;;;;6.00;3.35;;;;;;;0.32;100.00;95707.34;5046576;28;20033;-74
2022/09/23 04:51:05;;;;;;;5.40;3.38;;;;;;;0.27;100.00;95703.75;5039747;28;20064;-74
2022/09/23 04:53:32;;;;;;;6.05;3.20;;;;;;;0.20;100.00;95701.16;5041297;28;20064;-74
2022/09/23 04:56:05;;;;;;;5.85;3.47;;;;;;;0.19;100.00;95707.34;5043363;28;20037;-74
2022/09/23 04:58:31;;;;;;;5.22;3.17;;;;;;;0.25;100.00;95709.13;5045648;28;20045;-74
2022/09/23 05:00:57;;;;;;;5.68;3.17;;;;;;;0.32;100.00;95706.56;5041122;28;20503;-74
2022/09/23 05:03:23;;;;;;;6.15;3.30;;;;;;;0.29;100.00;95706.97;5041583;28;20049;-75
2022/09/23 05:05:49;;;;;;;5.28;3.15;;;;;;;0.27;100.00;95708.94;5044172;28;20570;-74
2022/09/23 05:08:14;;;;;;;7.85;3.40;;;;;;;0.28;100.00;95700.97;5042558;28;20069;-74
2022/09/23 05:10:41;;;;;;;6.60;3.22;;;;;;;0.28;100.00;95715.72;5042164;28;20391;-74
2022/09/23 05:13:07;;;;;;;5.78;3.30;;;;;;;0.33;100.00;95708.13;5039582;28;20079;-75
2022/09/23 05:15:33;;;;;;;5.35;3.10;;;;;;;0.42;100.00;95712.13;5042547;28;20061;-75
2022/09/23 05:17:59;;;;;;;5.45;3.35;;;;;;;0.35;100.00;95716.50;5049091;28;20119;-75
2022/09/23 05:20:25;;;;;;;5.18;3.20;;;;;;;0.32;100.00;95722.09;5041082;28;20132;-75
2022/09/23 05:22:54;;;;;;;7.53;3.72;;;;;;;0.24;100.00;95717.09;5046681;28;20525;-75
2022/09/23 05:25:21;;;;;;;8.02;3.17;;;;;;;0.36;100.00;95718.09;5048155;28;20115;-75
2022/09/23 05:27:46;;;;;;;5.13;3.42;;;;;;;0.32;100.00;95714.31;5065856;28;20036;-75
2022/09/23 05:30:12;;;;;;;6.40;3.65;;;;;;;0.28;100.00;95721.69;5046285;28;20437;-75
2022/09/23 05:32:37;;;;;;;6.60;3.08;;;;;;;0.32;100.00;95722.09;5042642;28;20064;-75
2022/09/23 05:35:03;;;;;;;6.53;3.45;;;;;;;0.31;100.00;95715.31;5049966;28;20780;-75
2022/09/23 05:37:30;;;;;;;6.70;3.65;;;;;;;0.44;100.00;95720.47;5037355;28;20045;-75
2022/09/23 05:39:55;;;;;;;7.00;3.38;;;;;;;0.59;100.00;95715.09;5040630;28;20040;-75
2022/09/23 05:42:21;;;;;;;7.13;3.55;;;;;;;0.57;100.00;95724.06;5046438;28;20513;-75
2022/09/23 05:44:46;;;;;;;5.78;3.35;;;;;;;0.61;100.00;95725.25;5048177;28;20477;-76
2022/09/23 05:47:12;;;;;;;9.23;3.60;;;;;;;0.58;100.00;95721.28;5047076;28;20163;-75
2022/09/23 05:49:37;;;;;;;9.32;3.72;;;;;;;0.59;100.00;95724.66;5049533;28;20045;-75
2022/09/23 05:52:03;;;;;;;5.75;3.38;;;;;;;0.68;100.00;95720.88;5046029;28;20037;-75
2022/09/23 05:54:28;;;;;;;5.00;3.40;;;;;;;0.74;100.00;95709.69;5050819;28;20110;-75
2022/09/23 05:56:54;;;;;;;5.78;3.50;;;;;;;0.69;100.00;95714.69;5043897;28;20049;-74
2022/09/23 05:59:19;;;;;;;5.82;3.40;;;;;;;0.72;100.00;95711.69;5047377;28;20041;-75
2022/09/23 06:01:45;;;;;;;6.78;3.65;;;;;;;0.87;100.00;95714.06;5047635;28;20502;-74
2022/09/23 06:04:13;;;;;;;6.13;3.65;;;;;;;1.00;100.00;95713.22;5043960;28;20116;-75
2022/09/23 06:06:41;;;;;;;7.32;3.75;;;;;;;1.14;100.00;95717.38;5042672;28;20706;-75
2022/09/23 06:09:14;;;;;;;5.75;3.33;;;;;;;1.24;100.00;95713.56;5046310;28;20047;-75
2022/09/23 06:11:41;;;;;;;5.95;3.58;;;;;;;1.28;100.00;95709.53;5047119;28;20465;-75
2022/09/23 06:14:10;;;;;;;6.53;3.58;;;;;;;1.45;100.00;95709.88;5041406;28;20526;-74
2022/09/23 06:16:36;;;;;;;6.72;3.90;;;;;;;1.51;100.00;95709.84;5042062;28;20396;-74
2022/09/23 06:19:04;;;;;;;8.48;3.80;;;;;;;1.68;100.00;95709.34;5042080;28;20043;-74
2022/09/23 06:21:31;;;;;;;8.80;3.83;;;;;;;2.00;100.00;95706.78;5041570;28;20128;-74
2022/09/23 06:24:01;;;;;;;7.38;3.40;;;;;;;2.18;100.00;95714.63;5048753;28;20041;-74
2022/09/23 06:26:32;;;;;;;7.75;4.00;;;;;;;2.06;100.00;95716.34;5047101;28;20041;-74
2022/09/23 06:28:58;;;;;;;11.85;4.43;;;;;;;2.12;100.00;95704.31;5049555;28;20048;-74
2022/09/23 06:31:24;;;;;;;8.18;3.72;;;;;;;2.24;100.00;95708.63;5046379;28;20395;-74
2022/09/23 06:33:50;;;;;;;7.40;4.03;;;;;;;2.19;100.00;95708.44;5043481;28;20126;-74
2022/09/23 06:36:15;;;;;;;7.72;3.85;;;;;;;2.33;100.00;95705.72;5037911;28;20487;-74
2022/09/23 06:38:47;;;;;;;7.03;4.05;;;;;;;2.28;100.00;95703.00;5041799;28;20041;-74
2022/09/23 06:41:12;;;;;;;7.07;3.83;;;;;;;2.24;100.00;95703.41;5044017;28;20049;-74
2022/09/23 06:43:38;;;;;;;9.50;3.60;;;;;;;2.33;100.00;95705.72;5045394;28;20068;-74
2022/09/23 06:46:06;;;;;;;7.00;4.00;;;;;;;2.48;100.00;95706.22;5046904;28;20041;-75
2022/09/23 06:48:34;;;;;;;5.97;3.55;;;;;;;2.53;100.00;95710.78;5046267;28;20050;-75
2022/09/23 06:51:03;;;;;;;6.68;4.10;;;;;;;2.58;100.00;95711.72;5038177;28;20040;-74
2022/09/23 06:53:33;;;;;;;7.03;3.75;;;;;;;2.66;100.00;95709.84;5044713;28;20049;-75
2022/09/23 06:56:10;;;;;;;6.60;3.60;;;;;;;2.70;100.00;95711.03;5041420;28;20516;-74
2022/09/23 06:58:37;;;;;;;6.40;3.58;;;;;;;2.94;100.00;95707.59;5042781;28;20045;-74
2022/09/23 07:01:12;;;;;;;6.15;3.78;;;;;;;2.93;100.00;95716.41;5045525;28;20159;-74
2022/09/23 07:03:37;;;;;;;7.65;3.55;;;;;;;2.98;100.00;95712.38;5045766;28;20045;-75
2022/09/23 07:06:05;;;;;;;9.55;4.25;;;;;;;3.07;100.00;95716.25;5043833;28;20037;-73
2022/09/23 07:08:32;;;;;;;7.03;4.40;;;;;;;3.31;100.00;95716.41;5046978;28;20433;-74
2022/09/23 07:11:00;;;;;;;8.63;4.65;;;;;;;3.41;100.00;95711.50;5034083;28;20037;-74
2022/09/23 07:13:26;;;;;;;8.23;4.53;;;;;;;3.48;100.00;95707.00;5034796;28;20506;-74
2022/09/23 07:15:54;;;;;;;6.72;4.18;;;;;;;3.64;100.00;95701.19;5044532;28;20040;-75
2022/09/23 07:18:22;;;;;;;9.38;4.65;;;;;;;3.66;100.00;95702.78;5037768;28;20426;-74
2022/09/23 07:20:48;;;;;;;9.80;4.75;;;;;;;3.71;100.00;95700.31;5048307;28;20130;-74
2022/09/23 07:23:14;;;;;;;10.73;4.90;;;;;;;4.10;100.00;95704.16;5045770;28;20067;-77
2022/09/23 07:25:41;;;;;;;8.77;4.97;;;;;;;4.37;100.00;95708.97;5043735;28;20497;-74
2022/09/23 07:28:06;;;;;;;8.50;5.07;;;;;;;4.54;100.00;95703.88;5045059;28;20037;-75
2022/09/23 07:30:35;;;;;;;11.88;5.25;;;;;;;4.91;100.00;95698.41;5038093;28;20052;-75
2022/09/23 07:33:01;;;;;;;9.20;5.15;;;;;;;5.02;100.00;95702.06;5045976;28;20041;-74
2022/09/23 07:35:27;;;;;;;12.85;5.80;;;;;;;5.15;100.00;95709.63;5040861;28;20041;-77
2022/09/23 07:37:52;;;;;;;11.13;5.57;;;;;;;5.58;100.00;95707.59;5042589;28;20115;-77
2022/09/23 07:40:18;;;;;;;12.05;6.00;;;;;;;5.78;100.00;95711.63;5047744;28;20261;-78
2022/09/23 07:42:43;;;;;;;10.35;5.53;;;;;;;5.51;100.00;95699.88;5030798;28;20491;-76
2022/09/23 07:45:09;;;;;;;14.95;6.63;;;;;;;5.57;100.00;95711.22;5040781;28;20037;-77
2022/09/23 07:47:38;;;;;;;15.48;6.43;;;;;;;5.67;100.00;95711.41;5041946;28;20514;-77
2022/09/23 07:50:04;;;;;;;12.85;6.38;;;;;;;5.60;100.00;95710.75;5041187;28;20052;-76
2022/09/23 07:52:30;;;;;;;13.32;6.68;;;;;;;5.70;100.00;95712.78;5048696;28;20045;-76
2022/09/23 07:54:56;;;;;;;10.95;5.80;;;;;;;6.12;100.00;95716.94;5046839;28;20119;-78
2022/09/23 07:57:21;;;;;;;13.43;6.50;;;;;;;7.03;100.00;95710.72;5044263;28;20518;-77
2022/09/23 07:59:46;;;;;;;13.82;5.72;;;;;;;6.91;100.00;95718.66;5043851;28;20491;-77
2022/09/23 08:02:14;;;;;;;15.38;5.90;;;;;;;6.70;100.00;95713.16;5047703;28;20041;-76
2022/09/23 08:04:39;;;;;;;10.88;5.32;;;;;;;7.38;100.00;95718.22;5043770;28;20041;-76
2022/09/23 08:07:05;;;;;;;8.43;4.38;;;;;;;7.10;100.00;95712.13;5049091;28;20499;-75
2022/09/23 08:09:34;;;;;;;7.40;4.15;;;;;;;7.14;100.00;95720.31;5037522;28;20117;-76
2022/09/23 08:12:00;;;;;;;7.47;3.90;;;;;;;7.11;100.00;95712.91;5049060;28;20408;-76
2022/09/23 08:14:26;;;;;;;6.50;3.60;;;;;;;7.60;100.00;95715.63;5046099;28;20044;-77
2022/09/23 08:16:52;;;;;;;7.82;3.20;;;;;;;7.60;100.00;95720.06;5042165;28;20565;-77
2022/09/23 08:19:18;;;;;;;5.20;3.15;;;;;;;7.57;100.00;95720.53;5047458;28;20639;-76
2022/09/23 08:21:46;;;;;;;6.93;2.33;;;;;;;8.19;100.00;95718.56;5044619;28;20084;-76
2022/09/23 08:24:15;;;;;;;4.72;2.70;;;;;;;8.11;100.00;95711.94;5047573;28;20036;-79
2022/09/23 08:26:41;;;;;;;3.78;2.20;;;;;;;8.81;100.00;95718.03;5045623;28;20140;-77
2022/09/23 08:29:08;;;;;;;5.60;2.47;;;;;;;8.66;100.00;95715.28;5049996;28;20061;-77
2022/09/23 08:31:35;;;;;;;3.03;2.20;;;;;;;8.65;100.00;95713.72;5043920;28;20056;-78
2022/09/23 08:34:00;;;;;;;4.97;2.45;;;;;;;8.60;100.00;95711.06;5038450;28;20045;-79
2022/09/23 08:36:26;;;;;;;4.13;2.33;;;;;;;8.42;100.00;95710.38;5044591;28;20574;-80
2022/09/23 08:38:52;;;;;;;3.30;2.20;;;;;;;8.55;100.00;95708.38;5047802;28;20128;-77
2022/09/23 08:41:36;;;;;;;4.57;2.45;;;;;;;9.15;100.00;95712.47;5047488;28;20032;-78
2022/09/23 08:44:07;;;;;;;5.00;2.50;;;;;;;8.87;100.00;95704.94;5045184;28;20045;-76
2022/09/23 08:46:42;;;;;;;4.93;2.88;;;;;;;8.81;100.00;95704.91;5044747;28;20033;-76
2022/09/23 08:49:16;;;;;;;4.43;2.63;;;;;;;9.15;100.00;95701.97;5042807;28;20033;-84
2022/09/23 08:51:45;;;;;;;3.83;2.60;;;;;;;9.56;100.00;95705.81;5044998;28;20037;-78
2022/09/23 08:54:12;;;;;;;5.45;2.80;;;;;;;9.53;100.00;95713.13;5047352;28;20377;-77
2022/09/23 08:56:42;;;;;;;5.95;3.13;;;;;;;10.35;100.00;95698.63;5050225;28;20092;-76
2022/09/23 08:59:19;;;;;;;4.22;2.75;;;;;;;10.68;100.00;95701.78;5044971;28;20064;-76
2022/09/23 09:01:57;;;;;;;5.22;2.97;;;;;;;10.77;100.00;95697.53;5051053;28;20040;-78
2022/09/23 09:04:29;;;;;;;6.68;3.20;;;;;;;11.02;100.00;95695.91;5047882;28;20042;-78
2022/09/23 09:07:08;;;;;;;5.40;3.20;;;;;;;10.78;100.00;95693.09;5044285;28;20047;-78
2022/09/23 09:09:51;;;;;;;7.80;3.28;;;;;;;10.67;100.00;95708.09;5048345;28;20044;-79
2022/09/23 09:12:23;;;;;;;8.35;3.40;;;;;;;10.63;100.00;95707.03;5048761;28;20041;-77
2022/09/23 09:15:06;;;;;;;8.55;3.63;;;;;;;10.47;100.00;95693.88;5048421;28;20040;-77
2022/09/23 09:17:37;;;;;;;5.35;3.50;;;;;;;10.47;100.00;95688.59;5048257;28;20414;-78
2022/09/23 09:20:17;;;;;;;7.03;3.70;;;;;;;10.66;100.00;95690.69;5046275;28;20562;-77
2022/09/23 09:22:51;;;;;;;7.30;4.40;;;;;;;10.89;100.00;95690.16;5041409;28;20056;-77
2022/09/23 09:25:23;;;;;;;8.73;4.35;;;;;;;11.22;100.00;95682.69;5046275;28;20475;-77
2022/09/23 09:27:50;;;;;;;7.95;4.18;;;;;;;11.69;100.00;95685.91;5046058;28;20418;-77
2022/09/23 09:30:17;;;;;;;7.47;4.20;;;;;;;11.91;100.00;95677.63;5040986;28;20504;-77
2022/09/23 09:32:47;;;;;;;10.90;4.68;;;;;;;11.95;100.00;95676.06;5044663;28;20084;-78
2022/09/23 09:35:24;;;;;;;7.15;3.67;;;;;;;12.34;100.00;95668.38;5038042;28;20033;-78
2022/09/23 09:37:49;;;;;;;10.80;4.05;;;;;;;12.50;100.00;95667.22;5038853;28;20056;-77
2022/09/23 09:40:15;;;;;;;8.18;4.70;;;;;;;12.29;100.00;95664.72;5043416;28;20460;-77
2022/09/23 09:42:45;;;;;;;8.07;4.65;;;;;;;12.51;100.00;95668.00;5042399;28;20508;-78
2022/09/23 09:45:22;;;;;;;7.43;4.70;;;;;;;12.39;100.00;95668.38;5036322;28;20037;-78
2022/09/23 09:48:13;;;;;;;9.68;4.70;;;;;;;12.81;100.00;95661.63;5047273;28;20042;-77
2022/09/23 09:50:40;;;;;;;12.35;4.88;;;;;;;13.36;100.00;95649.97;5047705;28;20063;-80
2022/09/23 09:53:15;;;;;;;9.23;5.00;;;;;;;13.60;100.00;95650.72;5074011;28;20032;-79
2022/09/23 09:55:40;;;;;;;;;;;;;;;13.74;100.00;95650.81;5077502;28;20021;-80
2022/09/23 09:58:10;;;;;;;11.77;5.55;;;;;;;14.01;100.00;95655.44;5074413;28;19978;-75
2022/09/23 10:00:42;;;;;;;9.77;5.03;;;;;;;14.48;100.00;95641.50;5073508;28;20025;-73
2022/09/23 10:03:13;;;;;;;9.43;5.10;;;;;;;14.57;100.00;95639.75;5065629;28;20052;-73
2022/09/23 10:05:45;;;;;;;8.35;5.00;;;;;;;15.62;99.57;95646.28;5074669;28;20033;-73
2022/09/23 10:08:34;;;;;;;7.80;4.55;;;;;;;16.35;90.72;95632.97;5065317;28;20066;-74
2022/09/23 10:11:11;;;;;;;9.85;5.15;;;;;;;16.85;92.39;95631.19;5068409;28;20029;-73
2022/09/23 10:13:36;;;;;;;10.00;4.72;;;;;;;17.22;85.26;95637.16;5056180;28;20042;-75
2022/09/23 10:16:03;;;;;;;10.07;5.40;;;;;;;17.18;80.96;95628.22;5049979;28;20058;-75
2022/09/23 10:18:33;;;;;;;11.25;5.00;;;;;;;17.64;78.73;95632.22;5046940;28;20041;-75
2022/09/23 10:21:11;;;;;;;10.50;4.78;;;;;;;17.87;81.43;95629.44;5045253;28;20033;-77
2022/09/23 10:23:45;;;;;;;8.05;4.10;;;;;;;18.35;74.16;95615.19;5046218;28;20076;-77
2022/09/23 10:26:14;;;;;;;7.68;4.43;;;;;;;18.45;73.55;95620.16;5047599;28;20059;-75
2022/09/23 10:28:58;;;;;;;9.30;4.20;;;;;;;18.25;71.20;95615.50;5037528;28;20040;-74
2022/09/23 10:31:28;;;;;;;7.97;4.50;;;;;;;18.32;73.09;95621.91;5044527;28;20494;-75
2022/09/23 10:33:59;;;;;;;11.32;4.50;;;;;;;19.45;71.18;95622.63;5043503;28;20071;-75
2022/09/23 10:36:26;;;;;;;9.02;4.28;;;;;;;19.95;66.28;95628.28;5037541;28;20079;-74
2022/09/23 10:48:27;;;;;;;7.95;4.07;;;;;;;19.42;56.81;95612.59;5041519;28;20123;-75
2022/09/23 10:50:54;;;;;;;5.65;3.60;;;;;;;18.86;57.36;95608.16;5042725;28;20116;-76
2022/09/23 10:53:31;;;;;;;9.05;3.92;;;;;;;19.32;56.77;95602.28;5045813;28;20048;-76
2022/09/23 10:56:25;;;;;;;6.72;3.45;;;;;;;20.25;57.32;95600.34;5035675;28;20046;-76
2022/09/23 10:59:47;;;;;;;5.83;3.80;;;;;;;19.83;58.08;95600.41;5040978;28;20056;-78
2022/09/23 11:02:40;;;;;;;7.95;3.50;;;;;;;20.82;53.91;95595.38;5020973;28;20131;-76
2022/09/23 11:05:31;;;;;;;5.60;3.95;;;;;;;20.63;54.17;95595.91;5040378;28;20683;-76
2022/09/23 11:08:08;;;;;;;6.80;3.65;;;;;;;20.45;52.90;95592.63;5046760;28;20041;-75
2022/09/23 11:10:43;;;;;;;5.28;3.67;;;;;;;20.31;53.65;95589.47;5046248;28;20044;-75
2022/09/23 11:13:33;;;;;;;5.78;3.40;;;;;;;20.89;54.32;95584.91;5045792;28;20041;-75
2022/09/23 11:16:11;;;;;;;5.63;3.60;;;;;;;21.20;52.58;95578.19;5040912;28;20628;-76
2022/09/23 11:18:55;;;;;;;7.38;3.85;;;;;;;20.87;52.96;95581.78;5046793;28;20076;-75
2022/09/23 11:21:44;;;;;;;5.28;3.40;;;;;;;21.51;51.99;95584.91;5036975;28;20094;-76
2022/09/23 11:24:38;;;;;;;6.10;3.40;;;;;;;21.90;50.57;95577.19;5037198;28;20087;-76
2022/09/23 11:27:16;;;;;;;6.07;3.10;;;;;;;22.28;49.26;95573.25;5048632;28;20040;-75
2022/09/23 11:29:48;;;;;;;7.47;3.47;;;;;;;21.94;47.78;95572.72;5042599;28;20076;-75
2022/09/23 11:32:26;;;;;;;5.35;3.70;;;;;;;21.66;50.02;95566.56;5044556;28;20083;-75
2022/09/23 11:35:28;;;;;;;6.55;3.40;;;;;;;22.04;51.18;95567.97;5040836;28;20392;-75
2022/09/23 11:38:06;;;;;;;5.15;3.10;;;;;;;22.77;48.93;95560.66;5031964;28;20772;-75
2022/09/23 11:40:35;;;;;;;5.35;3.03;;;;;;;22.35;51.73;95555.81;5045569;28;20076;-75
2022/09/23 11:43:14;;;;;;;4.65;3.05;;;;;;;21.19;50.72;95549.91;5037505;28;20526;-75
2022/09/23 11:46:06;;;;;;;10.00;3.63;;;;;;;22.53;52.11;95554.34;5047584;28;20044;-75
2022/09/23 11:48:38;;;;;;;5.28;2.88;;;;;;;22.12;48.04;95550.97;5031557;28;20051;-75
2022/09/23 11:51:19;;;;;;;5.45;3.15;;;;;;;22.08;48.08;95544.75;5037564;28;20040;-83
2022/09/23 11:53:47;;;;;;;5.80;2.88;;;;;;;22.11;51.25;95549.41;5031255;28;20484;-76
2022/09/23 11:56:26;;;;;;;5.20;3.03;;;;;;;22.43;50.61;95536.88;5046935;28;20056;-75
2022/09/23 11:59:23;;;;;;;7.70;3.55;;;;;;;21.41;48.43;95545.19;5040196;28;20521;-76
2022/09/23 12:01:54;;;;;;;5.68;2.92;;;;;;;21.57;55.52;95540.69;5021917;28;20062;-75